Time;durP1;ratioP1;P1;durP2;ratioP2;P2;SDS_P1;SDS_P2;PMS_P1;PMS_P2;Temp;Humidity;BMP_temperature;BMP_pressure;BME280_temperature;BME280_humidity;BME280_pressure;Samples;Min_cycle;Max_cycle;Signal;HPM_P1;HPM_P2
2022/01/04 00:01:33;;;;;;;723.67;673.77;;;8.00;99.90;;;;;;4998435;28;20461;-85
2022/01/04 00:04:00;;;;;;;729.70;678.80;;;8.00;99.90;;;;;;4999034;28;20470;-85
2022/01/04 00:06:27;;;;;;;731.10;678.60;;;8.00;99.90;;;;;;5002231;28;20969;-86
2022/01/04 00:08:58;;;;;;;726.30;671.90;;;7.90;99.90;;;;;;5001266;28;20483;-85
2022/01/04 00:11:41;;;;;;;731.87;677.10;;;8.00;99.90;;;;;;5001415;28;21178;-85
2022/01/04 00:14:08;;;;;;;721.80;668.60;;;8.00;99.90;;;;;;5001926;28;20477;-85
2022/01/04 00:16:36;;;;;;;721.37;667.07;;;8.00;99.90;;;;;;5002086;28;20465;-85
2022/01/04 00:19:03;;;;;;;724.03;667.33;;;8.00;99.90;;;;;;5001939;28;20442;-85
2022/01/04 00:21:30;;;;;;;730.47;672.00;;;8.00;99.90;;;;;;5000775;28;20458;-84
2022/01/04 00:23:57;;;;;;;727.60;667.53;;;7.90;99.90;;;;;;5000085;28;20478;-84
2022/01/04 00:26:24;;;;;;;736.23;674.03;;;7.90;99.90;;;;;;4999678;28;20461;-85
2022/01/04 00:28:50;;;;;;;738.37;675.40;;;7.90;99.90;;;;;;5000033;28;20474;-85
2022/01/04 00:31:17;;;;;;;739.37;675.10;;;7.80;99.90;;;;;;5000692;28;20454;-85
2022/01/04 00:33:45;;;;;;;746.57;681.93;;;8.00;99.90;;;;;;5000580;28;21008;-85
2022/01/04 00:36:12;;;;;;;750.37;683.97;;;7.90;99.90;;;;;;5000793;28;20450;-85
2022/01/04 00:38:39;;;;;;;746.17;679.90;;;7.90;99.90;;;;;;4999768;28;20449;-85
2022/01/04 00:41:05;;;;;;;735.67;669.63;;;8.00;99.90;;;;;;5000731;28;20450;-85
2022/01/04 00:43:32;;;;;;;739.90;674.30;;;7.90;99.90;;;;;;5000601;28;21001;-85
2022/01/04 00:46:00;;;;;;;740.93;675.73;;;7.90;99.90;;;;;;5000115;28;20454;-85
2022/01/04 00:51:13;;;;;;;753.17;690.17;;;7.90;99.90;;;;;;5000958;28;20489;-85
2022/01/04 00:53:40;;;;;;;763.53;699.23;;;7.80;99.90;;;;;;5000906;28;20484;-85
2022/01/04 00:56:06;;;;;;;754.27;690.20;;;7.80;99.90;;;;;;5000284;28;20458;-85
2022/01/04 00:58:33;;;;;;;742.73;680.00;;;7.80;99.90;;;;;;4999689;28;20461;-85
2022/01/04 01:01:00;;;;;;;760.93;695.93;;;7.80;99.90;;;;;;5000934;28;20454;-85
2022/01/04 01:03:27;;;;;;;767.23;701.87;;;7.80;99.90;;;;;;5000372;28;20461;-86
2022/01/04 01:05:56;;;;;;;758.93;695.47;;;7.80;99.90;;;;;;5001748;28;20465;-85
2022/01/04 01:08:31;;;;;;;765.30;700.70;;;7.80;99.90;;;;;;5001899;28;20561;-86
2022/01/04 01:10:58;;;;;;;768.07;702.37;;;7.80;99.90;;;;;;5001199;28;20453;-85
2022/01/04 01:13:27;;;;;;;772.53;706.43;;;7.70;99.90;;;;;;5001570;28;20450;-85
2022/01/04 01:15:54;;;;;;;774.87;707.77;;;7.80;99.90;;;;;;4999723;28;20977;-85
2022/01/04 01:18:21;;;;;;;779.57;713.40;;;7.80;99.90;;;;;;5001097;28;20461;-85
2022/01/04 01:20:49;;;;;;;771.30;705.70;;;7.80;99.90;;;;;;5001004;28;20454;-85
2022/01/04 01:23:17;;;;;;;767.77;703.77;;;7.70;99.90;;;;;;5001280;28;20811;-85
2022/01/04 01:25:45;;;;;;;771.33;707.93;;;7.80;99.90;;;;;;5001341;28;20450;-85
2022/01/04 01:28:12;;;;;;;766.23;703.17;;;7.70;99.90;;;;;;5000840;28;20458;-85
2022/01/04 01:30:41;;;;;;;771.90;707.00;;;7.70;99.90;;;;;;5001083;28;20481;-85
2022/01/04 01:33:08;;;;;;;780.87;716.67;;;7.80;99.90;;;;;;5001506;28;20519;-85
2022/01/04 01:35:35;;;;;;;782.87;717.77;;;7.90;99.90;;;;;;5003246;28;20457;-85
2022/01/04 01:38:02;;;;;;;782.70;717.17;;;7.80;99.90;;;;;;5001911;28;20457;-86
2022/01/04 01:40:29;;;;;;;781.97;717.07;;;7.80;99.90;;;;;;5002097;28;20450;-85
2022/01/04 01:42:57;;;;;;;786.23;720.47;;;7.70;99.90;;;;;;5002752;28;20534;-85
2022/01/04 01:45:25;;;;;;;778.97;713.80;;;7.70;99.90;;;;;;5001545;28;20481;-85
2022/01/04 01:47:52;;;;;;;794.53;725.53;;;7.90;99.90;;;;;;5000791;28;20461;-85
2022/01/04 01:50:22;;;;;;;789.50;720.20;;;7.90;99.90;;;;;;5000687;28;20532;-86
2022/01/04 01:52:50;;;;;;;794.63;725.27;;;7.80;99.90;;;;;;5001343;28;20450;-85
2022/01/04 01:55:21;;;;;;;784.93;716.07;;;7.70;99.90;;;;;;4999883;28;20470;-85
2022/01/04 01:58:00;;;;;;;793.67;723.20;;;7.70;99.90;;;;;;5000912;28;20482;-84
2022/01/04 02:00:32;;;;;;;813.57;741.27;;;7.70;99.90;;;;;;4999719;28;20454;-85
2022/01/04 02:03:02;;;;;;;805.70;732.60;;;7.70;99.90;;;;;;5000509;28;20466;-85
2022/01/04 02:05:35;;;;;;;817.50;742.17;;;7.80;99.90;;;;;;4999579;28;20633;-85
2022/01/04 02:08:05;;;;;;;822.67;746.40;;;7.70;99.90;;;;;;4999906;28;20482;-85
2022/01/04 02:10:33;;;;;;;840.17;762.13;;;7.70;99.90;;;;;;4999795;28;20513;-85
2022/01/04 02:13:00;;;;;;;846.70;767.53;;;7.60;99.90;;;;;;5000165;28;20452;-85
2022/01/04 02:15:32;;;;;;;850.00;770.47;;;7.80;99.90;;;;;;4999716;28;20485;-85
2022/01/04 02:17:59;;;;;;;850.13;769.97;;;7.60;99.90;;;;;;4999443;28;20458;-85
2022/01/04 02:20:28;;;;;;;861.77;781.27;;;7.70;99.90;;;;;;4999657;28;20457;-84
2022/01/04 02:22:55;;;;;;;855.87;774.70;;;7.60;99.90;;;;;;4999987;28;20445;-85
2022/01/04 02:25:23;;;;;;;858.27;777.90;;;7.60;99.90;;;;;;4999647;28;20536;-85
2022/01/04 02:27:52;;;;;;;852.10;772.07;;;7.70;99.90;;;;;;4999131;28;20464;-85
2022/01/04 02:30:29;;;;;;;868.47;787.10;;;7.70;99.90;;;;;;4999763;28;21026;-85
2022/01/04 02:32:56;;;;;;;860.57;778.67;;;7.70;99.90;;;;;;5000965;28;20458;-87
2022/01/04 02:35:25;;;;;;;870.07;788.07;;;7.60;99.90;;;;;;4999524;28;20509;-84
2022/01/04 02:37:55;;;;;;;842.87;761.37;;;7.60;99.90;;;;;;4999169;28;20807;-85
2022/01/04 02:40:22;;;;;;;853.40;771.60;;;7.60;99.90;;;;;;4999861;28;20854;-85
2022/01/04 02:42:49;;;;;;;870.97;787.87;;;7.70;99.90;;;;;;5000236;28;20462;-85
2022/01/04 02:45:16;;;;;;;866.30;783.93;;;7.70;99.90;;;;;;4999138;28;20479;-85
2022/01/04 02:47:43;;;;;;;868.57;785.17;;;7.60;99.90;;;;;;4998857;28;20473;-85
2022/01/04 02:50:11;;;;;;;875.47;791.60;;;7.70;99.90;;;;;;4998387;28;20482;-84
2022/01/04 02:52:38;;;;;;;865.23;781.33;;;7.70;99.90;;;;;;4999225;28;20467;-85
2022/01/04 02:55:09;;;;;;;881.50;796.20;;;7.70;99.90;;;;;;5000421;28;20484;-85
2022/01/04 02:57:37;;;;;;;891.93;806.17;;;7.60;99.90;;;;;;4999206;28;20465;-85
2022/01/04 03:00:08;;;;;;;889.03;803.97;;;7.70;99.90;;;;;;4998791;28;20457;-85
2022/01/04 03:02:35;;;;;;;900.73;815.37;;;7.60;99.90;;;;;;4999996;28;20827;-85
2022/01/04 03:05:02;;;;;;;902.37;816.80;;;7.70;99.90;;;;;;4999213;28;20539;-84
2022/01/04 03:07:28;;;;;;;898.90;813.70;;;7.60;99.90;;;;;;4999686;28;20521;-85
2022/01/04 03:09:56;;;;;;;899.77;814.00;;;7.60;99.90;;;;;;4999092;28;20568;-85
2022/01/04 03:12:24;;;;;;;887.13;802.17;;;7.60;99.90;;;;;;4998590;28;20473;-85
2022/01/04 03:14:51;;;;;;;890.67;805.47;;;7.60;99.90;;;;;;5055522;22;20483;-81
2022/01/04 03:17:18;;;;;;;892.50;805.97;;;7.60;99.90;;;;;;5067105;28;20445;-82
2022/01/04 03:19:45;;;;;;;899.50;812.13;;;7.60;99.90;;;;;;5067045;28;20451;-82
2022/01/04 03:22:12;;;;;;;904.07;818.10;;;7.60;99.90;;;;;;5067348;28;20446;-82
2022/01/04 03:24:38;;;;;;;880.27;795.00;;;7.60;99.90;;;;;;5064949;28;20472;-82
2022/01/04 03:27:05;;;;;;;889.67;803.60;;;7.70;99.90;;;;;;5069017;28;20451;-82
2022/01/04 03:29:34;;;;;;;901.63;814.97;;;7.60;99.90;;;;;;5068836;28;20475;-82
2022/01/04 03:32:00;;;;;;;911.50;823.47;;;7.50;99.90;;;;;;5068399;28;20455;-82
2022/01/04 03:34:27;;;;;;;898.23;810.87;;;7.60;99.90;;;;;;5066793;28;20569;-82
2022/01/04 03:36:54;;;;;;;888.23;802.77;;;7.50;99.90;;;;;;5063317;28;20458;-82
2022/01/04 03:39:21;;;;;;;887.57;801.30;;;7.50;99.90;;;;;;5064815;28;20479;-82
2022/01/04 03:41:48;;;;;;;889.90;803.53;;;7.50;99.90;;;;;;5066711;28;20456;-82
2022/01/04 03:44:20;;;;;;;889.07;802.40;;;7.60;99.90;;;;;;5065657;28;20566;-82
2022/01/04 03:46:48;;;;;;;901.23;812.77;;;7.60;99.90;;;;;;5068713;28;20451;-82
2022/01/04 03:49:15;;;;;;;902.20;813.57;;;7.50;99.90;;;;;;5067760;28;20451;-82
2022/01/04 03:51:42;;;;;;;905.23;816.03;;;7.50;99.90;;;;;;5067570;28;20435;-82
2022/01/04 03:54:09;;;;;;;921.77;833.07;;;7.60;99.90;;;;;;5065782;28;20475;-82
2022/01/04 03:56:36;;;;;;;919.30;830.00;;;7.50;99.90;;;;;;5068144;28;20455;-82
2022/01/04 03:59:03;;;;;;;921.53;831.47;;;7.50;99.90;;;;;;5068645;28;20451;-82
2022/01/04 04:01:30;;;;;;;930.67;839.17;;;7.50;99.90;;;;;;5068768;28;20443;-82
2022/01/04 04:03:58;;;;;;;927.67;836.47;;;7.40;99.90;;;;;;5068574;28;20921;-82
2022/01/04 04:06:25;;;;;;;933.80;841.53;;;7.50;99.90;;;;;;5069000;28;20439;-83
2022/01/04 04:08:53;;;;;;;925.23;833.70;;;7.60;99.90;;;;;;5069317;28;20515;-83
2022/01/04 04:11:20;;;;;;;934.93;842.57;;;7.40;99.90;;;;;;5068524;28;20578;-83
2022/01/04 04:13:47;;;;;;;927.90;835.60;;;7.40;99.90;;;;;;5069369;28;20448;-82
2022/01/04 04:16:13;;;;;;;924.60;833.73;;;7.50;99.90;;;;;;5069003;28;20455;-82
2022/01/04 04:18:40;;;;;;;932.50;840.67;;;7.40;99.90;;;;;;5068439;28;20459;-83
2022/01/04 04:21:08;;;;;;;937.97;844.80;;;7.50;99.90;;;;;;5068076;28;20448;-82
2022/01/04 04:23:35;;;;;;;940.57;847.17;;;7.50;99.90;;;;;;5068585;28;20457;-83
2022/01/04 04:26:02;;;;;;;941.03;847.60;;;7.40;99.90;;;;;;5067396;28;20697;-83
2022/01/04 04:28:29;;;;;;;951.50;857.50;;;7.50;99.90;;;;;;5068775;28;20458;-83
2022/01/04 04:30:56;;;;;;;948.63;854.53;;;7.50;99.90;;;;;;5068565;28;20546;-83
2022/01/04 04:33:23;;;;;;;953.57;860.27;;;7.60;99.90;;;;;;5068846;28;20451;-83
2022/01/04 04:35:49;;;;;;;956.87;863.43;;;7.60;99.90;;;;;;5068895;28;20479;-83
2022/01/04 04:38:18;;;;;;;956.03;862.10;;;7.40;99.90;;;;;;5068534;28;20539;-83
2022/01/04 04:40:45;;;;;;;944.90;852.20;;;7.50;99.90;;;;;;5068023;28;20507;-82
2022/01/04 04:43:12;;;;;;;945.43;853.50;;;7.60;99.90;;;;;;5068492;28;20443;-83
2022/01/04 04:45:39;;;;;;;941.57;851.27;;;7.50;99.90;;;;;;5061874;28;20471;-83
2022/01/04 04:48:06;;;;;;;928.40;841.00;;;7.60;99.90;;;;;;5064120;28;20510;-82
2022/01/04 04:50:33;;;;;;;933.37;843.77;;;7.40;99.90;;;;;;5067631;28;20475;-83
2022/01/04 04:53:00;;;;;;;938.50;848.20;;;7.60;99.90;;;;;;5071728;28;20473;-83
2022/01/04 04:55:29;;;;;;;934.87;847.30;;;7.50;99.90;;;;;;5069245;28;20471;-83
2022/01/04 04:57:55;;;;;;;916.13;828.17;;;7.50;99.90;;;;;;5071867;28;20466;-83
2022/01/04 05:00:22;;;;;;;908.70;822.30;;;7.50;99.90;;;;;;5071215;28;20515;-83
2022/01/04 05:02:49;;;;;;;903.53;817.93;;;7.50;99.90;;;;;;5072243;28;20461;-83
2022/01/04 05:05:16;;;;;;;911.93;825.80;;;7.40;99.90;;;;;;5071889;28;20481;-83
2022/01/04 05:07:42;;;;;;;927.37;841.07;;;7.50;99.90;;;;;;5072020;28;20461;-83
2022/01/04 05:10:10;;;;;;;907.40;822.27;;;7.50;99.90;;;;;;5070345;28;20476;-81
2022/01/04 05:12:38;;;;;;;895.40;811.07;;;7.40;99.90;;;;;;5071858;28;20466;-83
2022/01/04 05:15:06;;;;;;;906.23;822.47;;;7.50;99.90;;;;;;5071563;28;20480;-83
2022/01/04 05:17:33;;;;;;;916.03;832.40;;;7.40;99.90;;;;;;5071440;28;20514;-83
2022/01/04 05:20:00;;;;;;;906.33;822.97;;;7.50;99.90;;;;;;5071164;28;20453;-83
2022/01/04 05:22:27;;;;;;;909.40;825.60;;;7.50;99.90;;;;;;5071262;28;20451;-82
2022/01/04 05:24:53;;;;;;;893.17;810.00;;;7.40;99.90;;;;;;5070979;28;20471;-83
2022/01/04 05:27:20;;;;;;;900.23;815.30;;;7.40;99.90;;;;;;5069768;28;20453;-83
2022/01/04 05:29:49;;;;;;;894.50;811.00;;;7.50;99.90;;;;;;5070984;28;20538;-83
2022/01/04 05:32:15;;;;;;;892.83;810.40;;;7.40;99.90;;;;;;5070985;28;20438;-83
2022/01/04 05:34:42;;;;;;;867.17;784.57;;;7.50;99.90;;;;;;5071125;28;20474;-83
2022/01/04 05:37:10;;;;;;;886.33;800.80;;;7.30;99.90;;;;;;5070614;28;20457;-83
2022/01/04 05:39:37;;;;;;;898.90;813.00;;;7.50;99.90;;;;;;5069842;28;20445;-83
2022/01/04 05:42:04;;;;;;;891.97;805.50;;;7.50;99.90;;;;;;5069180;28;20452;-83
2022/01/04 05:44:31;;;;;;;895.93;809.20;;;7.40;99.90;;;;;;5070161;28;20471;-83
2022/01/04 05:46:59;;;;;;;897.17;809.17;;;7.40;99.90;;;;;;5069928;28;20459;-83
2022/01/04 05:49:26;;;;;;;908.07;819.37;;;7.30;99.90;;;;;;5070133;28;20479;-83
2022/01/04 05:51:53;;;;;;;912.83;823.93;;;7.50;99.90;;;;;;5069776;28;20518;-83
2022/01/04 05:54:20;;;;;;;928.20;839.10;;;7.50;99.90;;;;;;5069660;28;20499;-82
2022/01/04 05:56:47;;;;;;;889.90;802.20;;;7.30;99.90;;;;;;5069266;28;20466;-83
2022/01/04 05:59:14;;;;;;;891.27;804.00;;;7.30;99.90;;;;;;5069528;28;20448;-83
2022/01/04 06:01:41;;;;;;;895.50;807.27;;;7.30;99.90;;;;;;5067510;28;20451;-83
2022/01/04 06:04:10;;;;;;;897.87;808.37;;;7.30;99.90;;;;;;5068740;28;20467;-83
2022/01/04 06:06:39;;;;;;;895.13;805.27;;;7.30;99.90;;;;;;5068539;28;20481;-83
2022/01/04 06:09:09;;;;;;;893.50;803.93;;;7.50;99.90;;;;;;5069166;28;20451;-83
2022/01/04 06:11:57;;;;;;;896.43;805.83;;;7.40;99.90;;;;;;5069010;28;20539;-83
2022/01/04 06:17:09;;;;;;;912.20;822.23;;;7.50;99.90;;;;;;5069135;28;20470;-82
2022/01/04 06:19:38;;;;;;;899.07;810.43;;;7.50;99.90;;;;;;5070193;28;20454;-83
2022/01/04 06:22:05;;;;;;;886.47;797.83;;;7.50;99.90;;;;;;5069078;28;20447;-82
2022/01/04 06:24:32;;;;;;;893.57;805.60;;;7.40;99.90;;;;;;5068446;28;20478;-82
2022/01/04 06:26:59;;;;;;;886.90;798.43;;;7.40;99.90;;;;;;5069147;28;20452;-83
2022/01/04 06:29:26;;;;;;;912.43;822.73;;;7.40;99.90;;;;;;5067499;28;20454;-82
2022/01/04 06:31:53;;;;;;;892.53;802.73;;;7.50;99.90;;;;;;5068987;28;20777;-82
2022/01/04 06:34:21;;;;;;;895.90;806.20;;;7.50;99.90;;;;;;5069339;28;20519;-83
2022/01/04 06:36:49;;;;;;;911.03;821.63;;;7.40;99.90;;;;;;5068079;28;20458;-82
2022/01/04 06:39:16;;;;;;;909.10;820.10;;;7.60;99.90;;;;;;5065294;28;20533;-82
2022/01/04 06:41:43;;;;;;;895.30;808.30;;;7.50;99.90;;;;;;5068566;28;20451;-82
2022/01/04 06:44:10;;;;;;;903.13;816.77;;;7.60;99.90;;;;;;5067782;28;20487;-82
2022/01/04 06:46:38;;;;;;;904.70;818.70;;;7.40;99.90;;;;;;5064712;28;20454;-81
2022/01/04 06:49:05;;;;;;;889.70;801.90;;;7.40;99.90;;;;;;5067464;28;20451;-82
2022/01/04 06:51:32;;;;;;;888.03;799.47;;;7.50;99.90;;;;;;5056790;28;20510;-83
2022/01/04 06:54:02;;;;;;;895.03;804.33;;;7.40;99.90;;;;;;5054122;28;20526;-81
2022/01/04 06:56:29;;;;;;;911.47;821.10;;;7.40;99.90;;;;;;5053378;28;20464;-83
2022/01/04 06:58:59;;;;;;;918.07;827.70;;;7.50;99.90;;;;;;5055693;28;20556;-83
2022/01/04 07:01:25;;;;;;;907.60;817.30;;;7.30;99.90;;;;;;5053608;28;20524;-83
2022/01/04 07:03:52;;;;;;;908.43;817.37;;;7.40;99.90;;;;;;5053086;28;20455;-82
2022/01/04 07:06:19;;;;;;;885.13;795.10;;;7.30;99.90;;;;;;5053499;28;20985;-82
2022/01/04 07:08:46;;;;;;;893.20;803.07;;;7.40;99.90;;;;;;5052983;28;20462;-83
2022/01/04 07:11:19;;;;;;;893.37;804.40;;;7.30;99.90;;;;;;5052865;28;20483;-82
2022/01/04 07:13:46;;;;;;;891.10;802.30;;;7.30;99.90;;;;;;5054951;28;20518;-82
2022/01/04 07:16:16;;;;;;;880.87;792.10;;;7.30;99.90;;;;;;5053486;28;20523;-83
2022/01/04 07:18:46;;;;;;;905.37;816.00;;;7.20;99.90;;;;;;5055555;28;20461;-82
2022/01/04 07:21:13;;;;;;;889.20;800.87;;;7.30;99.90;;;;;;5056306;28;20647;-82
2022/01/04 07:23:41;;;;;;;881.67;791.20;;;7.30;99.90;;;;;;5058011;28;21114;-82
2022/01/04 07:26:11;;;;;;;919.33;827.77;;;7.40;99.90;;;;;;5057606;28;20447;-82
2022/01/04 07:28:49;;;;;;;901.07;810.00;;;7.30;99.90;;;;;;5058497;28;20447;-83
2022/01/04 07:31:17;;;;;;;887.77;796.60;;;7.40;99.90;;;;;;5058882;28;20475;-81
2022/01/04 07:33:49;;;;;;;895.60;805.40;;;7.30;99.90;;;;;;5056819;28;20455;-81
2022/01/04 07:36:25;;;;;;;875.60;787.77;;;7.30;99.90;;;;;;5056377;28;20470;-82
2022/01/04 07:39:07;;;;;;;873.23;786.60;;;7.30;99.90;;;;;;5053045;28;20947;-81
2022/01/04 07:41:47;;;;;;;864.70;778.90;;;7.30;99.90;;;;;;5054008;28;20501;-82
2022/01/04 07:44:36;;;;;;;871.80;785.47;;;7.40;99.90;;;;;;5052980;28;20502;-82
2022/01/04 07:47:17;;;;;;;;;;;;;;;;;;;;;
2022/01/04 07:49:47;;;;;;;886.33;799.40;;;7.20;99.90;;;;;;5055855;28;20967;-81
2022/01/04 07:52:34;;;;;;;889.57;801.13;;;7.50;99.90;;;;;;5056281;28;20482;-82
2022/01/04 07:55:09;;;;;;;889.97;801.40;;;7.30;99.90;;;;;;5054061;28;20475;-83
2022/01/04 07:57:41;;;;;;;887.50;798.63;;;7.20;99.90;;;;;;5054671;28;20905;-82
2022/01/04 08:00:14;;;;;;;882.43;793.10;;;7.20;99.90;;;;;;5053298;28;20454;-82
2022/01/04 08:02:46;;;;;;;893.73;804.67;;;7.40;99.90;;;;;;5053662;28;20452;-83
2022/01/04 08:11:26;;;;;;;;;;;;;;;;;;;;;
2022/01/04 08:14:13;;;;;;;866.53;777.77;;;7.30;99.90;;;;;;5043710;28;21216;-82
2022/01/04 08:17:04;;;;;;;873.33;783.40;;;7.30;99.90;;;;;;5042428;28;20441;-82
2022/01/04 08:19:47;;;;;;;865.63;777.47;;;7.50;99.90;;;;;;5040119;28;20456;-82
2022/01/04 08:22:31;;;;;;;879.60;790.60;;;7.30;99.90;;;;;;5038562;28;20448;-82
2022/01/04 08:25:11;;;;;;;880.80;791.40;;;7.40;99.90;;;;;;5034208;28;20558;-82
2022/01/04 08:27:38;;;;;;;878.23;788.40;;;7.40;99.90;;;;;;5037368;28;20459;-83
2022/01/04 08:30:38;;;;;;;894.00;802.40;;;7.30;99.90;;;;;;5037699;28;20448;-82
2022/01/04 08:35:55;;;;;;;903.43;809.93;;;7.40;99.90;;;;;;5037733;28;20555;-83
2022/01/04 08:38:26;;;;;;;886.00;794.80;;;7.30;99.90;;;;;;5036415;28;20878;-82
2022/01/04 08:40:52;;;;;;;872.57;783.10;;;7.50;99.90;;;;;;5038481;28;20447;-83
2022/01/04 08:43:28;;;;;;;871.93;783.30;;;7.50;99.90;;;;;;5039886;28;20891;-83
2022/01/04 08:46:03;;;;;;;871.87;781.00;;;7.50;99.90;;;;;;5037628;28;20807;-83
2022/01/04 08:48:36;;;;;;;860.17;772.00;;;7.50;99.90;;;;;;5038236;28;20463;-83
2022/01/04 08:51:07;;;;;;;854.47;767.90;;;7.50;99.90;;;;;;5038451;28;20452;-83
2022/01/04 08:53:53;;;;;;;853.67;766.77;;;7.60;99.90;;;;;;5037095;28;20495;-84
2022/01/04 08:56:21;;;;;;;869.23;781.63;;;7.50;99.90;;;;;;5036739;28;20460;-84
2022/01/04 08:58:51;;;;;;;864.13;776.17;;;7.60;99.90;;;;;;5036723;28;20452;-84
2022/01/04 09:01:21;;;;;;;864.87;776.67;;;7.60;99.90;;;;;;5037165;28;20801;-84
2022/01/04 09:03:57;;;;;;;871.53;781.60;;;7.60;99.90;;;;;;5037005;28;20871;-84
2022/01/04 09:06:31;;;;;;;868.43;778.47;;;7.60;99.90;;;;;;5036860;28;20448;-83
2022/01/04 09:09:23;;;;;;;861.23;773.53;;;7.60;99.90;;;;;;5037102;28;20482;-84
2022/01/04 09:11:55;;;;;;;868.50;779.80;;;7.70;99.90;;;;;;5037841;28;20488;-83
2022/01/04 09:14:29;;;;;;;860.57;771.40;;;7.70;99.90;;;;;;5039282;28;20503;-84
2022/01/04 09:19:43;;;;;;;843.43;756.00;;;7.90;99.90;;;;;;5044832;28;20456;-83
2022/01/04 09:22:24;;;;;;;832.03;746.90;;;7.70;99.90;;;;;;5042073;28;20502;-83
2022/01/04 09:24:57;;;;;;;847.67;760.57;;;7.60;99.90;;;;;;5037333;28;20476;-83
2022/01/04 09:27:24;;;;;;;854.77;766.67;;;7.90;99.90;;;;;;5038296;28;20524;-84
2022/01/04 09:29:55;;;;;;;848.43;763.07;;;7.80;99.90;;;;;;5038041;28;20462;-84
2022/01/04 09:32:28;;;;;;;856.23;769.80;;;7.80;99.90;;;;;;5038407;28;20515;-85
2022/01/04 09:35:04;;;;;;;867.83;779.77;;;7.90;99.90;;;;;;5038588;28;20469;-84
2022/01/04 09:37:38;;;;;;;844.03;759.97;;;7.80;99.90;;;;;;5036415;28;20448;-84
2022/01/04 09:40:13;;;;;;;842.50;757.93;;;8.00;99.90;;;;;;5037538;28;20491;-84
2022/01/04 09:42:40;;;;;;;846.03;760.40;;;8.00;99.90;;;;;;5040074;28;20940;-83
2022/01/04 09:45:08;;;;;;;846.53;761.83;;;7.90;99.90;;;;;;5041478;28;21042;-85
2022/01/04 09:47:35;;;;;;;844.57;761.17;;;8.00;99.90;;;;;;5038342;28;20498;-84
2022/01/04 09:50:08;;;;;;;843.97;761.47;;;8.10;99.90;;;;;;5037941;28;20948;-84
2022/01/04 09:52:39;;;;;;;846.60;763.17;;;8.20;99.90;;;;;;5037449;28;20480;-85
2022/01/04 09:55:19;;;;;;;838.43;758.60;;;8.00;99.90;;;;;;5037401;28;20472;-84
2022/01/04 09:57:49;;;;;;;815.10;736.77;;;8.00;99.90;;;;;;5037182;28;20452;-84
2022/01/04 10:00:19;;;;;;;791.87;717.23;;;8.10;99.90;;;;;;5041756;28;20456;-84
2022/01/04 10:02:54;;;;;;;795.87;722.47;;;8.00;99.90;;;;;;5040301;28;20506;-84
2022/01/04 10:05:51;;;;;;;783.10;711.70;;;8.00;99.90;;;;;;5038598;28;20478;-84
2022/01/04 10:08:22;;;;;;;772.60;701.57;;;7.80;99.90;;;;;;5039501;28;20835;-84
2022/01/04 10:11:03;;;;;;;765.53;696.17;;;7.80;99.90;;;;;;5039529;28;20444;-84
2022/01/04 10:13:35;;;;;;;771.23;700.93;;;7.90;99.90;;;;;;5042749;28;20833;-86
2022/01/04 10:16:21;;;;;;;748.23;680.67;;;7.90;99.90;;;;;;5041954;28;20476;-85
2022/01/04 10:18:53;;;;;;;748.40;681.40;;;7.90;99.90;;;;;;5038888;28;20460;-85
2022/01/04 10:21:31;;;;;;;756.03;687.57;;;7.90;99.90;;;;;;5040200;28;20997;-84
2022/01/04 10:24:19;;;;;;;752.53;685.33;;;7.90;99.90;;;;;;5040238;28;20448;-84
2022/01/04 10:26:56;;;;;;;737.37;671.50;;;7.90;99.90;;;;;;5042780;28;20460;-84
2022/01/04 10:29:26;;;;;;;732.77;668.10;;;7.80;99.90;;;;;;5044510;28;20444;-84
2022/01/04 10:31:57;;;;;;;703.93;644.13;;;7.80;99.90;;;;;;5042497;28;20476;-85
2022/01/04 10:34:24;;;;;;;707.70;646.90;;;7.80;99.90;;;;;;5040360;28;20514;-84
2022/01/04 10:36:53;;;;;;;717.70;654.67;;;7.70;99.90;;;;;;5042641;28;20491;-87
2022/01/04 10:39:20;;;;;;;707.30;645.13;;;7.70;99.90;;;;;;5041609;28;20495;-84
2022/01/04 10:41:47;;;;;;;695.80;635.60;;;7.70;99.90;;;;;;5044544;28;21008;-84
2022/01/04 10:44:16;;;;;;;698.00;635.57;;;7.70;99.90;;;;;;5044095;28;20464;-84
2022/01/04 10:46:53;;;;;;;686.60;627.17;;;7.80;99.90;;;;;;5042737;28;20518;-83
2022/01/04 10:49:22;;;;;;;694.73;635.03;;;7.70;99.90;;;;;;5039231;28;20455;-84
2022/01/04 10:54:44;;;;;;;692.80;632.25;;;7.70;99.90;;;;;;5111112;27;1245050;-82
2022/01/04 10:57:13;;;;;;;702.80;640.37;;;7.80;99.90;;;;;;5138153;28;20183;-83
2022/01/04 10:59:48;;;;;;;706.70;644.03;;;7.80;99.90;;;;;;5136932;28;20440;-83
2022/01/04 11:02:33;;;;;;;713.70;652.03;;;7.80;99.90;;;;;;5137154;28;20456;-83
2022/01/04 11:05:25;;;;;;;709.87;647.83;;;7.90;99.90;;;;;;5136766;27;20490;-84
2022/01/04 11:08:13;;;;;;;720.07;655.97;;;8.00;99.90;;;;;;5135736;28;20969;-83
2022/01/04 11:10:53;;;;;;;722.00;656.83;;;8.00;99.90;;;;;;5137935;28;20814;-83
2022/01/04 11:13:35;;;;;;;723.27;659.30;;;8.00;99.90;;;;;;5132925;28;20468;-83
2022/01/04 11:16:09;;;;;;;724.50;662.27;;;8.00;99.90;;;;;;5135218;27;20495;-85
2022/01/04 11:19:02;;;;;;;;;;;;;;;;;;;;;
2022/01/04 11:21:58;;;;;;;;;;;;;;;;;;;;;
2022/01/04 11:24:40;;;;;;;716.77;655.87;;;8.00;99.90;;;;;;5137929;27;20505;-84
2022/01/04 11:27:30;;;;;;;714.93;655.07;;;7.90;99.90;;;;;;5138782;28;20539;-84
2022/01/04 11:29:59;;;;;;;717.60;658.03;;;7.80;99.90;;;;;;5135600;28;20517;-84
2022/01/04 11:32:31;;;;;;;713.20;655.83;;;8.00;99.90;;;;;;5134948;28;20453;-84
2022/01/04 11:35:16;;;;;;;715.00;660.10;;;8.00;99.90;;;;;;5134828;27;21064;-85
2022/01/04 11:38:00;;;;;;;712.63;657.37;;;7.90;99.90;;;;;;5125589;28;20457;-85
2022/01/04 11:40:31;;;;;;;709.27;655.37;;;8.00;99.90;;;;;;5112941;28;20456;-84
2022/01/04 11:43:05;;;;;;;709.93;656.87;;;8.00;99.90;;;;;;5112699;28;20449;-84
2022/01/04 11:45:51;;;;;;;708.00;653.90;;;8.10;99.90;;;;;;5111251;28;20511;-84
2022/01/04 11:48:40;;;;;;;705.80;652.23;;;8.20;99.90;;;;;;5111218;28;20787;-84
2022/01/04 11:51:29;;;;;;;710.17;656.80;;;8.20;99.90;;;;;;5110766;28;20476;-84
2022/01/04 11:54:22;;;;;;;715.80;664.10;;;8.30;99.90;;;;;;5111310;28;20473;-84
2022/01/04 11:57:23;;;;;;;;;;;;;;;;;;;;;
2022/01/04 12:00:08;;;;;;;719.97;668.60;;;8.30;99.90;;;;;;5110457;28;20451;-85
2022/01/04 12:03:09;;;;;;;715.00;666.30;;;8.40;99.90;;;;;;5110377;28;20460;-85
2022/01/04 12:05:39;;;;;;;701.43;654.80;;;8.40;99.90;;;;;;5098780;28;20483;-86
2022/01/04 12:08:52;;;;;;;701.03;657.83;;;8.30;99.90;;;;;;5095660;28;20445;-84
2022/01/04 12:11:53;;;;;;;;;;;;;;;;;;;;;
2022/01/04 12:14:40;;;;;;;685.10;645.80;;;8.40;99.90;;;;;;5095803;28;20921;-85
2022/01/04 12:17:46;;;;;;;681.53;640.97;;;8.30;99.90;;;;;;5095393;28;20453;-85
2022/01/04 12:20:57;;;;;;;689.23;647.87;;;8.40;99.90;;;;;;5094743;28;20442;-85
2022/01/04 12:24:01;;;;;;;674.50;636.30;;;8.40;99.90;;;;;;5096363;28;20511;-83
2022/01/04 12:30:08;;;;;;;662.33;625.60;;;8.30;99.90;;;;;;5085908;28;20462;-85
2022/01/04 12:32:42;;;;;;;634.13;601.23;;;8.30;99.90;;;;;;5087840;28;20816;-84
2022/01/04 12:35:18;;;;;;;644.47;611.17;;;8.20;99.90;;;;;;5098266;28;20477;-84
2022/01/04 12:37:49;;;;;;;658.93;623.50;;;8.30;99.90;;;;;;5097759;28;20560;-85
2022/01/04 12:40:19;;;;;;;659.47;623.57;;;8.30;99.90;;;;;;5101939;28;21024;-83
2022/01/04 12:42:46;;;;;;;671.77;634.47;;;8.30;99.90;;;;;;5102350;28;20450;-81
2022/01/04 12:45:14;;;;;;;661.23;626.00;;;8.30;99.90;;;;;;5102145;28;20465;-84
2022/01/04 12:47:50;;;;;;;678.10;641.00;;;8.40;99.90;;;;;;5101425;28;20450;-83
2022/01/04 12:50:17;;;;;;;703.83;661.33;;;8.40;99.90;;;;;;5097944;28;20449;-83
2022/01/04 12:52:49;;;;;;;692.43;651.47;;;8.50;99.90;;;;;;5099516;28;20456;-83
2022/01/04 12:55:16;;;;;;;707.27;665.03;;;8.50;99.90;;;;;;5099984;28;20544;-83
2022/01/04 12:57:43;;;;;;;711.87;668.60;;;8.60;99.90;;;;;;5101051;28;20453;-83
2022/01/04 13:00:15;;;;;;;717.27;674.77;;;8.60;99.90;;;;;;5101087;28;20456;-84
2022/01/04 13:02:41;;;;;;;701.03;662.63;;;8.70;99.90;;;;;;5101082;28;20472;-83
2022/01/04 13:05:11;;;;;;;669.73;637.03;;;8.70;99.90;;;;;;5102898;28;20462;-83
2022/01/04 13:07:39;;;;;;;646.37;616.20;;;8.70;99.90;;;;;;5103560;28;20450;-82
2022/01/04 13:10:09;;;;;;;641.87;613.03;;;8.70;99.90;;;;;;5104136;28;20446;-83
2022/01/04 13:12:39;;;;;;;659.77;629.20;;;8.60;99.90;;;;;;5103836;28;20450;-82